Time;durP1;ratioP1;P1;durP2;ratioP2;P2;SDS_P1;SDS_P2;PMS_P1;PMS_P2;Temp;Humidity;BMP_temperature;BMP_pressure;BME280_temperature;BME280_humidity;BME280_pressure;Samples;Min_cycle;Max_cycle;Signal;HPM_P1;HPM_P2
2021/11/15 00:02:22;;;;;;;4.88;3.80;;;;;;;12.82;71.92;101580.22;4958140;28;20068;-59
2021/11/15 00:04:50;;;;;;;4.20;3.67;;;;;;;12.82;71.58;101577.56;4956305;28;20058;-59
2021/11/15 00:07:17;;;;;;;4.03;3.60;;;;;;;12.82;71.75;101570.50;4958136;28;20055;-59
2021/11/15 00:09:44;;;;;;;6.10;3.80;;;;;;;12.82;71.81;101567.88;4956890;28;20133;-59
2021/11/15 00:12:12;;;;;;;5.35;3.75;;;;;;;12.85;71.79;101562.47;4958664;28;20046;-59
2021/11/15 00:14:39;;;;;;;4.43;3.65;;;;;;;12.84;71.50;101555.50;4956443;28;20106;-60
2021/11/15 00:17:06;;;;;;;4.93;3.55;;;;;;;12.85;71.61;101553.69;4956940;28;20323;-59
2021/11/15 00:19:33;;;;;;;3.75;3.15;;;;;;;12.86;71.74;101566.81;4956008;28;20055;-60
2021/11/15 00:22:00;;;;;;;4.82;3.60;;;;;;;12.86;71.23;101569.44;4958295;28;20050;-61
2021/11/15 00:24:26;;;;;;;4.80;3.58;;;;;;;12.87;71.29;101570.28;4956613;28;20171;-61
2021/11/15 00:26:53;;;;;;;4.05;3.28;;;;;;;12.89;71.07;101576.34;4973621;28;20073;-59
2021/11/15 00:29:20;;;;;;;4.68;3.80;;;;;;;12.92;71.11;101572.69;4973684;28;20043;-59
2021/11/15 00:31:47;;;;;;;4.65;2.95;;;;;;;12.89;71.05;101571.06;4973720;28;20054;-59
2021/11/15 00:34:14;;;;;;;3.90;3.45;;;;;;;12.89;71.05;101571.06;4973635;28;20047;-59
2021/11/15 00:36:41;;;;;;;4.80;3.55;;;;;;;12.88;70.99;101572.00;4973256;28;20046;-59
2021/11/15 00:39:09;;;;;;;4.60;3.20;;;;;;;12.86;71.25;101568.56;4972332;28;20053;-61
2021/11/15 00:41:36;;;;;;;3.53;3.22;;;;;;;12.84;71.55;101560.75;4973511;28;20047;-59
2021/11/15 00:44:03;;;;;;;4.70;3.30;;;;;;;12.81;71.77;101562.69;4972656;28;20050;-59
2021/11/15 00:46:30;;;;;;;4.15;3.28;;;;;;;12.80;71.88;101564.50;4973412;28;20089;-61
2021/11/15 00:48:57;;;;;;;4.80;3.15;;;;;;;12.79;72.01;101573.31;4973424;28;20484;-61
2021/11/15 00:51:25;;;;;;;4.57;3.10;;;;;;;12.77;72.09;101569.91;4973554;28;20440;-58
2021/11/15 00:53:53;;;;;;;4.55;3.03;;;;;;;12.79;72.22;101570.69;4973140;28;20047;-58
2021/11/15 00:56:20;;;;;;;5.03;3.30;;;;;;;12.77;72.12;101574.34;4973444;28;20042;-59
2021/11/15 00:58:46;;;;;;;3.22;2.85;;;;;;;12.76;72.34;101578.75;4973264;28;20562;-60
2021/11/15 01:01:13;;;;;;;5.15;3.50;;;;;;;12.77;72.49;101571.69;4972247;28;20093;-64
2021/11/15 01:03:41;;;;;;;3.33;2.50;;;;;;;12.76;72.40;101576.13;4973076;28;20093;-62
2021/11/15 01:06:07;;;;;;;4.28;3.05;;;;;;;12.74;72.72;101580.63;4970013;28;20428;-60
2021/11/15 01:08:34;;;;;;;4.20;3.00;;;;;;;12.76;72.57;101573.50;4954738;28;20520;-62
2021/11/15 01:11:01;;;;;;;3.88;3.17;;;;;;;12.74;72.83;101570.09;4966553;28;20058;-61
2021/11/15 01:13:28;;;;;;;4.13;3.10;;;;;;;12.74;73.00;101567.44;4973210;28;20109;-61
2021/11/15 01:15:55;;;;;;;4.97;3.15;;;;;;;12.77;73.04;101569.06;4973059;28;20047;-64
2021/11/15 01:18:21;;;;;;;4.53;3.38;;;;;;;12.74;73.28;101568.28;4972275;28;20069;-60
2021/11/15 01:20:48;;;;;;;4.95;3.60;;;;;;;12.74;73.53;101556.91;4972925;28;20507;-61
2021/11/15 01:23:15;;;;;;;4.20;3.38;;;;;;;12.74;73.59;101556.91;4972990;28;20042;-60
2021/11/15 01:25:49;;;;;;;4.25;3.50;;;;;;;12.79;73.34;101569.84;4972022;28;20054;-60
2021/11/15 01:28:24;;;;;;;4.53;3.40;;;;;;;12.79;73.63;101559.31;4972445;28;20053;-60
2021/11/15 01:30:56;;;;;;;4.93;3.60;;;;;;;12.78;73.38;101555.81;4973061;28;20083;-60
2021/11/15 01:33:23;;;;;;;4.50;3.50;;;;;;;12.79;73.49;101560.16;4976899;28;20046;-60
2021/11/15 01:35:50;;;;;;;6.97;3.70;;;;;;;12.80;73.59;101563.63;4975583;28;20558;-61
2021/11/15 01:38:17;;;;;;;5.45;3.63;;;;;;;12.84;73.77;101566.03;4975952;28;20616;-61
2021/11/15 01:40:43;;;;;;;4.47;3.95;;;;;;;12.86;73.69;101561.53;4976900;28;20393;-60
2021/11/15 01:43:10;;;;;;;5.63;3.78;;;;;;;12.83;73.84;101556.41;4976669;28;20500;-60
2021/11/15 01:45:39;;;;;;;5.18;3.53;;;;;;;12.84;73.78;101549.38;4976776;28;20058;-63
2021/11/15 01:48:08;;;;;;;5.28;3.90;;;;;;;12.85;73.78;101548.44;4976857;28;20043;-61
2021/11/15 01:50:36;;;;;;;7.00;3.95;;;;;;;12.81;73.71;101550.41;4976649;28;20047;-60
2021/11/15 01:53:06;;;;;;;7.03;3.92;;;;;;;12.80;73.70;101545.19;4975797;28;20047;-60
2021/11/15 01:55:33;;;;;;;7.22;4.20;;;;;;;12.79;73.77;101540.88;4976328;28;20498;-61
2021/11/15 01:58:03;;;;;;;5.15;3.85;;;;;;;12.80;73.86;101542.56;4976687;28;20053;-61
2021/11/15 02:00:37;;;;;;;5.63;4.22;;;;;;;12.78;73.87;101532.09;4976466;28;20042;-63
2021/11/15 02:03:04;;;;;;;5.40;3.97;;;;;;;12.83;73.70;101537.13;4976506;28;20051;-60
2021/11/15 02:05:31;;;;;;;4.63;3.67;;;;;;;12.83;73.73;101537.13;4976105;28;20055;-60
2021/11/15 02:07:58;;;;;;;6.50;3.95;;;;;;;12.82;73.59;101525.72;4976464;28;20043;-61
2021/11/15 02:10:25;;;;;;;4.60;3.55;;;;;;;12.84;73.52;101520.41;4975320;28;20534;-60
2021/11/15 02:12:52;;;;;;;4.28;3.70;;;;;;;12.84;73.56;101529.16;4976305;28;20389;-61
2021/11/15 02:15:19;;;;;;;5.13;3.95;;;;;;;12.86;72.83;101523.78;4976165;28;20054;-63
2021/11/15 02:17:47;;;;;;;5.50;4.00;;;;;;;12.86;72.68;101532.56;4976084;28;20043;-61
2021/11/15 02:20:18;;;;;;;5.07;3.90;;;;;;;12.90;72.29;101539.38;4976093;28;20050;-61
2021/11/15 02:22:45;;;;;;;6.22;3.97;;;;;;;12.93;72.24;101530.44;4975925;28;20042;-61
2021/11/15 02:25:18;;;;;;;5.10;3.88;;;;;;;12.95;72.00;101530.34;4975026;28;20050;-61
2021/11/15 02:27:46;;;;;;;5.25;3.47;;;;;;;12.97;71.92;101526.69;4975782;28;20047;-61
2021/11/15 02:30:18;;;;;;;5.30;4.22;;;;;;;12.97;71.85;101529.34;4976072;28;20051;-60
2021/11/15 02:32:45;;;;;;;5.20;3.58;;;;;;;13.00;71.75;101523.91;4975739;28;20047;-60
2021/11/15 02:35:14;;;;;;;4.30;3.67;;;;;;;13.01;71.75;101522.97;4976062;28;20049;-63
2021/11/15 02:37:42;;;;;;;5.30;4.03;;;;;;;13.01;71.72;101530.84;4975704;28;20117;-61
2021/11/15 02:40:12;;;;;;;4.95;3.70;;;;;;;13.03;71.75;101528.16;4975816;28;20043;-61
2021/11/15 02:42:38;;;;;;;5.85;4.05;;;;;;;13.03;71.53;101526.38;4974298;28;20062;-63
2021/11/15 02:45:08;;;;;;;5.82;4.60;;;;;;;13.04;71.68;101532.50;4975590;28;20050;-60
2021/11/15 02:47:37;;;;;;;6.70;4.13;;;;;;;13.04;71.68;101533.34;4975493;28;20105;-61
2021/11/15 02:50:05;;;;;;;7.15;5.05;;;;;;;13.02;71.58;101531.72;4975659;28;20384;-62
2021/11/15 02:52:32;;;;;;;8.57;5.45;;;;;;;13.01;71.94;101528.22;4975666;28;20094;-60
2021/11/15 02:54:59;;;;;;;9.68;5.38;;;;;;;13.00;71.72;101529.19;4975298;28;20113;-60
2021/11/15 02:57:27;;;;;;;8.45;5.32;;;;;;;12.99;71.75;101521.34;4974651;28;20073;-60
2021/11/15 02:59:55;;;;;;;7.80;4.97;;;;;;;13.00;71.57;101526.56;4975341;28;20059;-61
2021/11/15 03:02:23;;;;;;;12.48;7.00;;;;;;;12.99;71.90;101516.94;4975634;28;20042;-61
2021/11/15 03:04:51;;;;;;;12.50;7.15;;;;;;;13.00;71.81;101517.78;4975381;28;20491;-61
2021/11/15 03:07:18;;;;;;;12.18;5.72;;;;;;;12.99;71.64;101522.22;4975116;28;20047;-60
2021/11/15 03:09:45;;;;;;;7.20;4.35;;;;;;;12.96;71.64;101517.09;4975207;28;20053;-61
2021/11/15 03:12:12;;;;;;;6.63;4.35;;;;;;;12.96;71.84;101517.09;4975149;28;20038;-61
2021/11/15 03:14:39;;;;;;;6.82;4.55;;;;;;;12.94;72.09;101511.06;4974078;28;20043;-64
2021/11/15 03:17:06;;;;;;;4.72;3.78;;;;;;;12.93;71.97;101511.16;4975142;28;20455;-60
2021/11/15 03:19:33;;;;;;;6.45;4.47;;;;;;;12.92;72.20;101504.19;4975025;28;20057;-61
2021/11/15 03:22:00;;;;;;;6.10;4.28;;;;;;;12.93;72.38;101509.38;4975117;28;20439;-61
2021/11/15 03:24:27;;;;;;;5.00;4.30;;;;;;;12.94;72.00;101505.81;4961172;28;20130;-63
2021/11/15 03:26:53;;;;;;;6.53;4.75;;;;;;;12.94;72.21;101504.94;4974894;28;20051;-61
2021/11/15 03:29:20;;;;;;;6.05;4.10;;;;;;;12.94;72.26;101502.31;4973581;28;20563;-60
2021/11/15 03:31:47;;;;;;;7.43;4.35;;;;;;;12.94;71.96;101505.81;4974831;28;20412;-60
2021/11/15 03:34:14;;;;;;;6.80;4.53;;;;;;;12.96;71.95;101503.06;4974480;28;20078;-60
2021/11/15 03:36:43;;;;;;;5.28;3.92;;;;;;;12.96;72.12;101500.44;4974351;28;20062;-61
2021/11/15 03:39:12;;;;;;;6.05;4.57;;;;;;;12.96;72.01;101500.44;4974620;28;20496;-61
2021/11/15 03:41:40;;;;;;;7.93;4.10;;;;;;;12.97;71.92;101492.44;4974576;28;20043;-61
2021/11/15 03:44:08;;;;;;;8.05;4.20;;;;;;;12.95;71.92;101494.34;4974911;28;20047;-60
2021/11/15 03:46:35;;;;;;;4.95;4.07;;;;;;;12.94;72.09;101492.63;4973447;28;20038;-61
2021/11/15 03:49:02;;;;;;;5.10;4.15;;;;;;;12.95;71.73;101490.84;4974592;28;20046;-61
2021/11/15 03:51:29;;;;;;;6.22;4.40;;;;;;;12.94;71.73;101494.41;4974514;28;20050;-64
2021/11/15 03:53:56;;;;;;;6.82;4.10;;;;;;;12.94;71.57;101492.63;4973516;28;20046;-62
2021/11/15 03:56:26;;;;;;;5.22;3.95;;;;;;;12.98;71.38;101488.06;4974434;28;20059;-60
2021/11/15 03:58:55;;;;;;;5.10;4.07;;;;;;;13.00;70.86;101497.56;4974248;28;20051;-61
2021/11/15 04:01:28;;;;;;;5.97;4.25;;;;;;;13.00;70.89;101497.56;4974447;28;20047;-62
2021/11/15 04:03:58;;;;;;;5.55;4.45;;;;;;;13.00;70.74;101496.69;4968676;28;20054;-61
2021/11/15 04:06:29;;;;;;;5.47;4.43;;;;;;;13.00;70.42;101502.84;4970677;28;20062;-61
2021/11/15 04:09:00;;;;;;;5.57;4.05;;;;;;;13.01;70.52;101490.50;4970769;28;20561;-60
2021/11/15 04:11:29;;;;;;;6.07;4.22;;;;;;;13.03;70.12;101496.56;4970841;28;20139;-60
2021/11/15 04:14:02;;;;;;;5.93;4.28;;;;;;;13.02;69.91;101498.31;4970580;28;20069;-60
2021/11/15 04:16:29;;;;;;;5.90;3.80;;;;;;;13.03;69.88;101505.28;4971136;28;20050;-59
2021/11/15 04:18:59;;;;;;;6.00;4.03;;;;;;;13.04;69.62;101508.78;4968659;28;20047;-59
2021/11/15 04:21:30;;;;;;;6.43;4.47;;;;;;;13.04;69.45;101514.06;4957143;28;20050;-59
2021/11/15 04:23:57;;;;;;;6.13;4.15;;;;;;;13.03;69.24;101501.81;4970744;28;20053;-58
2021/11/15 04:26:24;;;;;;;5.03;4.10;;;;;;;13.03;68.90;101496.56;4970457;28;20047;-59
2021/11/15 04:28:50;;;;;;;6.13;4.25;;;;;;;13.03;68.98;101499.19;4970491;28;20050;-62
2021/11/15 04:31:17;;;;;;;5.85;4.45;;;;;;;13.03;69.07;101493.91;4970511;28;20045;-58
2021/11/15 04:33:44;;;;;;;7.47;4.80;;;;;;;13.02;68.80;101492.22;4970469;28;20051;-59
2021/11/15 04:36:11;;;;;;;6.00;4.53;;;;;;;13.00;68.86;101496.69;4969365;28;20054;-59
2021/11/15 04:38:38;;;;;;;7.95;4.35;;;;;;;12.99;68.37;101490.59;4970370;28;20059;-59
2021/11/15 04:41:04;;;;;;;6.57;4.82;;;;;;;13.00;68.63;101494.94;4970483;28;20062;-58
2021/11/15 04:43:31;;;;;;;6.05;4.65;;;;;;;13.00;68.56;101494.94;4957408;28;20514;-58
2021/11/15 04:45:58;;;;;;;6.20;4.75;;;;;;;12.99;68.54;101489.72;4970230;28;20459;-58
2021/11/15 04:48:25;;;;;;;6.20;4.53;;;;;;;12.99;68.72;101503.78;4970096;28;20047;-58
2021/11/15 04:50:53;;;;;;;8.13;4.75;;;;;;;12.99;68.49;101506.41;4970110;28;20049;-59
2021/11/15 04:53:20;;;;;;;7.03;5.00;;;;;;;12.97;68.77;101508.25;4969217;28;20154;-58
2021/11/15 04:55:47;;;;;;;8.20;5.25;;;;;;;12.98;68.64;101517.03;4970319;28;20517;-59
2021/11/15 04:58:14;;;;;;;7.78;5.00;;;;;;;12.97;68.59;101507.41;4970274;28;20058;-59
2021/11/15 05:00:42;;;;;;;6.28;4.95;;;;;;;12.95;68.94;101502.25;4969890;28;20062;-61
2021/11/15 05:03:09;;;;;;;7.63;5.15;;;;;;;12.96;68.78;101511.81;4970259;28;20053;-62
2021/11/15 05:05:36;;;;;;;8.30;5.03;;;;;;;12.96;68.86;101508.34;4969415;28;20043;-58
2021/11/15 05:08:03;;;;;;;7.03;5.05;;;;;;;12.93;69.14;101498.00;4970018;28;20058;-58
2021/11/15 05:10:30;;;;;;;5.85;4.40;;;;;;;12.93;69.13;101513.78;4968714;28;20042;-59
2021/11/15 05:13:01;;;;;;;6.10;4.63;;;;;;;12.92;68.97;101510.28;4970080;28;20058;-58
2021/11/15 05:15:28;;;;;;;7.40;5.18;;;;;;;12.90;69.13;101505.13;4969922;28;20412;-59
2021/11/15 05:17:55;;;;;;;7.65;5.15;;;;;;;12.87;69.26;101510.56;4969845;28;20404;-58
2021/11/15 05:20:22;;;;;;;7.03;4.85;;;;;;;12.85;69.59;101507.16;4969855;28;20396;-58
2021/11/15 05:22:49;;;;;;;6.35;4.20;;;;;;;12.86;69.39;101514.13;4969710;28;20039;-58
2021/11/15 05:25:17;;;;;;;7.68;5.20;;;;;;;12.84;69.66;101515.97;4968886;28;20061;-59
2021/11/15 05:27:44;;;;;;;7.68;5.07;;;;;;;12.83;69.67;101510.81;4969677;28;20109;-59
2021/11/15 05:30:15;;;;;;;8.73;5.22;;;;;;;12.83;69.75;101518.69;4969678;28;20053;-58
2021/11/15 05:32:42;;;;;;;6.90;5.10;;;;;;;12.81;69.73;101518.78;4968855;28;20051;-59
2021/11/15 05:35:09;;;;;;;6.40;4.70;;;;;;;12.82;69.63;101532.78;4969857;28;20069;-58
2021/11/15 05:37:36;;;;;;;7.03;5.43;;;;;;;12.80;69.78;101518.84;4969365;28;20134;-58
2021/11/15 05:40:07;;;;;;;8.73;5.22;;;;;;;12.80;69.83;101529.38;4968411;28;20055;-58
2021/11/15 05:42:33;;;;;;;7.90;5.30;;;;;;;12.79;69.90;101530.34;4969756;28;20050;-58
2021/11/15 05:45:01;;;;;;;7.35;5.30;;;;;;;12.78;69.84;101531.28;4969593;28;20043;-59
2021/11/15 05:47:27;;;;;;;8.88;6.07;;;;;;;12.77;69.69;101535.66;4969919;28;20085;-58
2021/11/15 05:49:54;;;;;;;8.25;5.82;;;;;;;12.78;70.00;101536.53;4969603;28;20101;-58
2021/11/15 05:52:23;;;;;;;8.10;5.43;;;;;;;12.78;69.86;101528.63;4970015;28;20042;-58
2021/11/15 05:54:51;;;;;;;8.63;6.05;;;;;;;12.79;69.55;101517.16;4969553;28;20117;-61
2021/11/15 05:57:19;;;;;;;7.25;5.60;;;;;;;12.79;69.51;101530.34;4968690;28;20415;-61
2021/11/15 05:59:45;;;;;;;9.35;5.70;;;;;;;12.81;69.48;101528.47;4969520;28;20062;-59
2021/11/15 06:02:13;;;;;;;8.25;5.82;;;;;;;12.83;69.36;101537.97;4969907;28;20109;-59
2021/11/15 06:04:39;;;;;;;9.35;6.22;;;;;;;12.82;69.32;101532.78;4969490;28;20050;-58
2021/11/15 06:07:13;;;;;;;8.57;5.82;;;;;;;12.83;69.35;101530.06;4968748;28;20054;-60
2021/11/15 06:09:48;;;;;;;8.55;6.13;;;;;;;12.83;69.32;101532.72;4969271;28;20125;-60
2021/11/15 06:12:20;;;;;;;9.05;5.95;;;;;;;12.86;69.14;101536.97;4967792;28;20464;-62
2021/11/15 06:14:47;;;;;;;9.93;6.18;;;;;;;12.87;69.36;101533.41;4969424;28;20491;-58
2021/11/15 06:17:15;;;;;;;8.82;6.35;;;;;;;12.89;69.07;101539.44;4971119;28;20401;-60
2021/11/15 06:19:43;;;;;;;10.13;6.65;;;;;;;12.90;69.07;101531.47;4972782;28;20129;-61
2021/11/15 06:22:10;;;;;;;9.70;6.32;;;;;;;12.91;69.00;101545.47;4972549;28;20130;-59
2021/11/15 06:24:38;;;;;;;8.70;5.72;;;;;;;12.93;68.99;101540.97;4971845;28;20460;-60
2021/11/15 06:27:05;;;;;;;9.75;6.00;;;;;;;12.95;68.66;101544.41;4972817;28;20055;-58
2021/11/15 06:29:32;;;;;;;9.68;6.20;;;;;;;12.98;68.67;101553.91;4972003;28;20538;-58
2021/11/15 06:31:59;;;;;;;8.95;6.40;;;;;;;13.00;68.56;101554.66;4972791;28;20050;-61
2021/11/15 06:34:26;;;;;;;8.77;6.20;;;;;;;13.02;68.38;101556.28;4972180;28;20097;-60
2021/11/15 06:39:28;;;;;;;9.68;6.20;;;;;;;13.02;68.13;101574.72;4737669;23;20059;-58
2021/11/15 06:41:56;;;;;;;9.32;6.60;;;;;;;13.05;68.04;101582.47;4952787;28;20079;-58
2021/11/15 06:44:25;;;;;;;9.57;6.47;;;;;;;13.06;67.83;101583.31;4952785;28;20047;-58
2021/11/15 06:46:52;;;;;;;12.05;6.38;;;;;;;13.07;67.81;101585.03;4952830;28;20062;-59
2021/11/15 06:49:18;;;;;;;10.02;6.97;;;;;;;13.08;67.60;101581.47;4953162;28;20074;-58
2021/11/15 06:51:46;;;;;;;9.90;6.90;;;;;;;13.08;67.54;101589.38;4953033;28;20047;-58
2021/11/15 06:54:14;;;;;;;11.43;7.97;;;;;;;13.11;67.09;101593.63;4953105;28;20056;-60
2021/11/15 06:56:41;;;;;;;11.18;7.80;;;;;;;13.10;67.31;101594.56;4951411;28;20071;-58
2021/11/15 06:59:08;;;;;;;10.23;7.07;;;;;;;13.13;67.21;101591.75;4952858;28;20496;-60
2021/11/15 07:01:36;;;;;;;10.65;7.97;;;;;;;13.13;66.96;101597.88;4952729;28;20724;-59
2021/11/15 07:04:08;;;;;;;11.13;7.40;;;;;;;13.13;66.87;101602.28;4952510;28;20047;-60
2021/11/15 07:06:37;;;;;;;11.98;7.70;;;;;;;13.13;66.88;101597.00;4952070;28;20059;-59
2021/11/15 07:09:04;;;;;;;11.23;7.53;;;;;;;13.13;66.65;101608.41;4951899;28;20051;-60
2021/11/15 07:11:31;;;;;;;12.23;7.97;;;;;;;13.14;66.28;101596.94;4952116;28;20114;-59
2021/11/15 07:13:58;;;;;;;13.38;7.78;;;;;;;13.14;66.18;101598.72;4950843;28;20049;-61
2021/11/15 07:16:25;;;;;;;12.77;7.50;;;;;;;13.15;66.10;101609.16;4951679;28;20133;-60
2021/11/15 07:18:52;;;;;;;12.52;8.02;;;;;;;13.16;66.01;101608.25;4951790;28;20107;-60
2021/11/15 07:21:20;;;;;;;11.20;7.60;;;;;;;13.15;65.81;101606.53;4951648;28;20050;-60
2021/11/15 07:23:48;;;;;;;10.18;7.35;;;;;;;13.16;65.75;101607.41;4952117;28;20055;-63
2021/11/15 07:26:15;;;;;;;15.45;8.02;;;;;;;13.18;65.63;101601.13;4947974;28;20047;-59
2021/11/15 07:28:46;;;;;;;10.68;7.40;;;;;;;13.21;65.29;101606.22;4951067;28;20135;-60
2021/11/15 07:31:17;;;;;;;11.35;8.02;;;;;;;13.22;64.95;101610.56;4950621;28;20050;-58
2021/11/15 07:33:51;;;;;;;13.35;8.10;;;;;;;13.26;64.99;101610.41;4944035;28;20082;-60
2021/11/15 07:36:20;;;;;;;12.90;8.10;;;;;;;13.27;64.67;101612.94;4951063;28;20439;-61
2021/11/15 07:38:47;;;;;;;13.68;8.10;;;;;;;13.31;64.75;101616.28;4950002;28;20499;-61
2021/11/15 07:41:15;;;;;;;10.55;7.38;;;;;;;13.32;64.76;101625.84;4951748;28;20074;-61
2021/11/15 07:43:43;;;;;;;11.55;7.28;;;;;;;13.31;64.80;101627.66;4949630;28;20047;-61
2021/11/15 07:46:11;;;;;;;11.27;7.40;;;;;;;13.36;64.64;101628.25;4951508;28;20558;-61
2021/11/15 07:48:38;;;;;;;10.10;7.00;;;;;;;13.36;64.37;101630.06;4951329;28;20055;-61
2021/11/15 07:51:07;;;;;;;11.45;7.22;;;;;;;13.41;64.63;101632.44;4951641;28;20410;-61
2021/11/15 07:53:37;;;;;;;12.25;7.43;;;;;;;13.36;64.44;101632.69;4951095;28;20497;-61
2021/11/15 07:56:07;;;;;;;10.07;7.15;;;;;;;13.36;64.36;101645.88;4948754;28;20051;-61
2021/11/15 07:58:35;;;;;;;10.60;7.25;;;;;;;13.36;64.62;101645.88;4947746;28;20051;-60
2021/11/15 08:01:03;;;;;;;12.98;7.28;;;;;;;13.36;64.73;101645.88;4951250;28;20046;-60
2021/11/15 08:03:30;;;;;;;10.15;7.05;;;;;;;13.35;64.82;101659.97;4940758;28;20070;-60
2021/11/15 08:05:58;;;;;;;11.50;7.75;;;;;;;13.35;64.48;101645.00;4948906;28;20057;-60
2021/11/15 08:08:25;;;;;;;16.63;8.15;;;;;;;13.36;64.84;101645.88;4951021;28;20050;-61
2021/11/15 08:10:52;;;;;;;14.63;7.68;;;;;;;13.37;65.01;101650.25;4951445;28;20510;-59
2021/11/15 08:13:19;;;;;;;10.52;7.32;;;;;;;13.40;64.93;101655.34;4949729;28;20054;-59
2021/11/15 08:15:46;;;;;;;10.77;7.30;;;;;;;13.42;64.87;101645.56;4951198;28;20095;-61
2021/11/15 08:18:13;;;;;;;13.00;7.18;;;;;;;13.45;64.77;101649.84;4950962;28;20043;-61
2021/11/15 08:20:40;;;;;;;10.00;7.18;;;;;;;13.47;65.18;101640.03;4950428;28;20141;-62
2021/11/15 08:23:13;;;;;;;10.32;7.15;;;;;;;13.48;65.09;101660.19;4949258;28;20054;-61
2021/11/15 08:25:56;;;;;;;10.20;7.22;;;;;;;13.46;65.38;101652.38;4950907;28;20051;-62
2021/11/15 08:28:28;;;;;;;12.93;7.75;;;;;;;13.50;65.09;101650.44;4950511;28;20484;-61
2021/11/15 08:30:56;;;;;;;11.70;7.25;;;;;;;13.59;64.84;101655.19;4935870;28;20385;-60
2021/11/15 08:33:23;;;;;;;11.73;7.93;;;;;;;13.65;64.88;101660.13;4948955;28;20459;-60
2021/11/15 08:35:50;;;;;;;12.30;7.20;;;;;;;13.68;64.94;101651.19;4950713;28;20054;-61
2021/11/15 08:38:18;;;;;;;10.40;7.28;;;;;;;13.71;64.58;101651.03;4949928;28;20051;-61
2021/11/15 08:40:48;;;;;;;11.88;7.30;;;;;;;13.74;64.52;101655.28;4950095;28;20055;-60
2021/11/15 08:43:16;;;;;;;12.02;7.28;;;;;;;13.74;64.78;101657.91;4950708;28;20106;-61
2021/11/15 08:45:43;;;;;;;10.57;7.28;;;;;;;13.67;64.90;101650.34;4949896;28;20196;-60
2021/11/15 08:48:10;;;;;;;11.35;7.18;;;;;;;13.65;64.67;101659.25;4950790;28;20118;-61
2021/11/15 08:50:38;;;;;;;10.77;6.50;;;;;;;13.60;65.05;101664.81;4950580;28;20044;-61
2021/11/15 08:53:06;;;;;;;8.73;6.68;;;;;;;13.59;64.72;101665.75;4950747;28;20132;-61
2021/11/15 08:55:33;;;;;;;11.57;7.10;;;;;;;13.63;64.66;101675.19;4945314;28;20127;-61
2021/11/15 08:58:02;;;;;;;8.90;6.72;;;;;;;13.59;64.67;101684.19;4950405;28;20492;-60
2021/11/15 09:00:31;;;;;;;10.23;7.03;;;;;;;13.61;64.93;101682.34;4950541;28;20385;-61
2021/11/15 09:02:59;;;;;;;13.50;7.18;;;;;;;13.65;64.58;101680.38;4949664;28;20047;-61
2021/11/15 09:05:25;;;;;;;12.50;7.30;;;;;;;13.66;64.64;101688.22;4950882;28;20072;-62
2021/11/15 09:07:53;;;;;;;10.32;7.45;;;;;;;13.66;64.82;101698.78;4938348;28;20397;-60
2021/11/15 09:10:20;;;;;;;10.10;6.72;;;;;;;13.65;64.78;101706.75;4950455;28;20786;-61
2021/11/15 09:12:47;;;;;;;10.77;7.32;;;;;;;13.64;64.94;101707.69;4950505;28;20050;-61
2021/11/15 09:15:17;;;;;;;13.25;7.38;;;;;;;13.63;65.23;101717.38;4950123;28;20397;-61
2021/11/15 09:17:45;;;;;;;11.45;7.93;;;;;;;13.63;65.05;101722.66;4950117;28;20051;-61
2021/11/15 09:20:12;;;;;;;10.70;7.60;;;;;;;13.60;65.36;101729.88;4949901;28;20047;-61
2021/11/15 09:22:43;;;;;;;17.35;8.07;;;;;;;13.61;66.03;101740.38;4949748;28;20043;-60
2021/11/15 09:25:12;;;;;;;11.93;7.82;;;;;;;13.59;66.23;101744.84;4949832;28;20062;-61
2021/11/15 09:27:40;;;;;;;13.77;8.02;;;;;;;13.52;66.51;101733.78;4949702;28;20051;-64
2021/11/15 09:30:12;;;;;;;14.65;9.00;;;;;;;13.52;66.70;101727.66;4950625;28;20055;-61
2021/11/15 09:32:40;;;;;;;13.70;8.85;;;;;;;13.52;66.71;101736.44;4949960;28;20057;-61
2021/11/15 09:35:08;;;;;;;14.35;9.00;;;;;;;13.49;67.04;101744.50;4948570;28;20048;-60
2021/11/15 09:37:35;;;;;;;13.48;7.95;;;;;;;13.46;66.92;101744.66;4948996;28;20066;-61
2021/11/15 09:40:05;;;;;;;13.32;8.52;;;;;;;13.43;67.24;101734.25;4950009;28;20155;-63
2021/11/15 09:42:32;;;;;;;15.13;9.10;;;;;;;13.41;67.16;101748.47;4949891;28;20054;-61
2021/11/15 09:45:01;;;;;;;16.55;9.15;;;;;;;13.35;67.51;101747.81;4950049;28;20499;-61
2021/11/15 09:47:28;;;;;;;12.85;8.73;;;;;;;13.36;67.71;101741.63;4939281;28;20050;-61
2021/11/15 09:49:58;;;;;;;13.90;8.48;;;;;;;13.34;67.67;101742.63;4950288;28;20055;-60
2021/11/15 09:52:25;;;;;;;11.80;8.35;;;;;;;13.30;67.67;101746.38;4950412;28;20055;-60
2021/11/15 09:54:52;;;;;;;15.38;8.57;;;;;;;13.25;68.02;101743.97;4953981;28;20138;-60
2021/11/15 09:57:45;;;;;;;12.70;8.60;;;;;;;13.23;68.34;101738.78;4953262;28;20043;-60
2021/11/15 10:00:16;;;;;;;15.02;9.13;;;;;;;13.26;68.39;101737.75;4953797;28;20047;-64
2021/11/15 10:02:43;;;;;;;12.80;8.88;;;;;;;13.26;68.40;101726.38;4953426;28;20055;-60
2021/11/15 10:05:10;;;;;;;11.85;8.05;;;;;;;13.27;68.50;101728.94;4953124;28;20055;-59
2021/11/15 10:07:47;;;;;;;14.60;8.70;;;;;;;13.26;68.59;101729.00;4951515;28;20051;-60
2021/11/15 10:10:44;;;;;;;11.93;7.90;;;;;;;13.24;68.38;101736.97;4946896;28;20049;-60
2021/11/15 10:13:14;;;;;;;;;;;;;;;13.28;68.67;101745.59;4953836;28;20055;-60
2021/11/15 10:15:50;;;;;;;14.20;8.52;;;;;;;13.30;68.67;101749.84;4952863;28;20363;-59
2021/11/15 10:18:39;;;;;;;;;;;;;;;13.29;68.42;101760.47;4952983;28;20074;-60
2021/11/15 10:21:28;;;;;;;10.38;7.70;;;;;;;13.39;68.37;101767.00;4946486;28;20293;-60
2021/11/15 10:24:00;;;;;;;12.50;7.28;;;;;;;13.40;68.04;101758.16;4946451;28;20407;-61
2021/11/15 10:26:35;;;;;;;13.15;8.55;;;;;;;13.40;68.24;101755.53;4952127;28;20058;-60
2021/11/15 10:29:25;;;;;;;14.68;9.05;;;;;;;13.40;67.94;101758.16;4952756;28;20051;-60
2021/11/15 10:32:19;;;;;;;12.30;8.68;;;;;;;13.44;68.11;101756.22;4951482;28;20106;-60
2021/11/15 10:34:45;;;;;;;14.20;8.52;;;;;;;13.48;67.73;101760.41;4950644;28;20475;-61
2021/11/15 10:37:26;;;;;;;11.75;8.27;;;;;;;13.53;67.45;101753.97;4951500;28;20058;-60
2021/11/15 10:40:04;;;;;;;12.75;8.38;;;;;;;13.56;67.71;101758.22;4951757;28;20055;-60
2021/11/15 10:42:51;;;;;;;13.57;8.25;;;;;;;13.57;67.75;101756.44;4952655;28;20047;-60
2021/11/15 10:45:19;;;;;;;11.05;7.97;;;;;;;13.58;67.68;101748.44;4952727;28;20043;-60
2021/11/15 10:47:50;;;;;;;13.77;8.77;;;;;;;13.61;67.66;101750.03;4952370;28;20043;-60
2021/11/15 10:50:31;;;;;;;13.57;9.18;;;;;;;13.62;67.56;101749.13;4952869;28;20049;-60
2021/11/15 10:53:04;;;;;;;14.30;9.05;;;;;;;13.63;67.45;101748.19;4952613;28;20047;-60
2021/11/15 10:55:36;;;;;;;12.82;8.82;;;;;;;13.65;67.38;101747.16;4950181;28;20519;-60
2021/11/15 10:58:20;;;;;;;13.50;9.05;;;;;;;13.64;67.63;101750.75;4952619;28;20500;-60
2021/11/15 11:00:58;;;;;;;14.43;8.93;;;;;;;13.66;67.40;101748.00;4952714;28;20055;-61
2021/11/15 11:03:27;;;;;;;12.18;8.13;;;;;;;13.67;67.00;101752.38;4950906;28;20059;-61
2021/11/15 11:05:57;;;;;;;12.90;8.63;;;;;;;13.68;67.08;101743.53;4951847;28;20039;-60
2021/11/15 11:08:25;;;;;;;15.55;9.18;;;;;;;13.72;66.89;101747.69;4947911;28;20043;-60
2021/11/15 11:11:08;;;;;;;13.35;7.95;;;;;;;13.73;67.07;101738.00;4947588;28;20047;-61
2021/11/15 11:14:04;;;;;;;12.77;8.48;;;;;;;13.71;67.22;101740.69;4951577;28;20062;-60
2021/11/15 11:16:48;;;;;;;15.75;9.50;;;;;;;13.70;66.88;101745.13;4940856;28;20495;-60
2021/11/15 11:19:21;;;;;;;13.60;8.57;;;;;;;13.74;66.79;101731.78;4948885;28;20511;-60
2021/11/15 11:27:14;;;;;;;12.15;8.27;;;;;;;13.80;66.71;101737.59;4949862;28;20098;-60
2021/11/15 11:29:47;;;;;;;12.70;8.55;;;;;;;13.79;66.60;101727.97;4951936;28;20044;-61
2021/11/15 11:32:17;;;;;;;15.35;9.07;;;;;;;13.78;66.51;101725.41;4951366;28;20051;-60
2021/11/15 11:34:44;;;;;;;13.55;8.05;;;;;;;13.75;66.58;101726.44;4951486;28;20106;-60
2021/11/15 11:37:14;;;;;;;13.55;8.50;;;;;;;13.70;66.61;101720.56;4949964;28;20428;-60
2021/11/15 11:39:41;;;;;;;13.27;8.63;;;;;;;13.69;66.84;101719.69;4950179;28;20139;-63